Time;durP1;ratioP1;P1;durP2;ratioP2;P2;SDS_P1;SDS_P2;PMS_P1;PMS_P2;Temp;Humidity;BMP_temperature;BMP_pressure;BME280_temperature;BME280_humidity;BME280_pressure;Samples;Min_cycle;Max_cycle;Signal;HPM_P1;HPM_P2
2022/10/13 00:00:44;;;;;;;4.85;1.77;;;9.30;99.90;;;;;;5028737;28;20037;-83
2022/10/13 00:03:10;;;;;;;3.75;1.45;;;9.30;99.90;;;;;;5010421;28;20025;-77
2022/10/13 00:05:47;;;;;;;6.03;1.77;;;9.40;99.90;;;;;;5028574;28;20088;-83
2022/10/13 00:08:14;;;;;;;5.63;2.20;;;9.40;99.90;;;;;;5009819;28;20048;-83
2022/10/13 00:10:45;;;;;;;3.65;1.30;;;9.50;99.90;;;;;;4995103;28;20561;-84
2022/10/13 00:13:11;;;;;;;4.10;1.90;;;9.50;99.90;;;;;;5010357;28;20083;-81
2022/10/13 00:15:42;;;;;;;5.00;1.88;;;9.50;99.90;;;;;;5028522;28;20043;-85
2022/10/13 00:18:08;;;;;;;6.55;1.85;;;9.60;99.90;;;;;;5010543;28;20025;-84
2022/10/13 00:20:34;;;;;;;3.90;1.42;;;9.60;99.90;;;;;;5027380;28;20044;-82
2022/10/13 00:23:00;;;;;;;4.57;2.42;;;9.70;99.90;;;;;;4994561;28;20026;-79
2022/10/13 00:25:26;;;;;;;4.82;1.60;;;9.70;99.90;;;;;;5009754;28;20085;-82
2022/10/13 00:27:51;;;;;;;5.82;2.00;;;9.70;99.90;;;;;;5027161;28;20393;-86
2022/10/13 00:30:19;;;;;;;4.95;1.50;;;9.70;99.90;;;;;;5027854;28;20083;-81
2022/10/13 00:32:45;;;;;;;4.47;1.88;;;9.80;99.90;;;;;;4993788;28;20116;-82
2022/10/13 00:35:11;;;;;;;4.00;2.35;;;9.80;99.90;;;;;;5010303;28;20109;-79
2022/10/13 00:37:37;;;;;;;5.25;2.30;;;9.90;99.90;;;;;;5026380;28;20063;-85
2022/10/13 00:40:03;;;;;;;7.85;2.70;;;9.90;99.90;;;;;;4993000;28;20033;-81
2022/10/13 00:42:29;;;;;;;4.00;1.73;;;9.90;99.90;;;;;;5010401;28;20375;-85
2022/10/13 00:45:16;;;;;;;4.72;2.10;;;9.90;99.90;;;;;;5027681;28;20037;-82
2022/10/13 00:47:45;;;;;;;5.68;2.22;;;10.00;99.90;;;;;;5027974;28;20479;-85
2022/10/13 00:50:18;;;;;;;4.35;2.20;;;10.00;99.90;;;;;;5010029;28;20021;-84
2022/10/13 00:52:46;;;;;;;4.22;1.83;;;10.00;99.90;;;;;;5011053;28;20029;-85
2022/10/13 00:55:17;;;;;;;4.72;2.30;;;10.10;99.90;;;;;;5008311;28;20104;-81
2022/10/13 00:57:47;;;;;;;6.65;2.97;;;10.10;99.90;;;;;;5041286;28;20030;-84
2022/10/13 01:00:13;;;;;;;4.40;2.40;;;10.20;99.90;;;;;;5027145;28;20040;-85
2022/10/13 01:02:39;;;;;;;5.70;2.60;;;10.20;99.90;;;;;;5027749;28;20053;-82
2022/10/13 01:05:06;;;;;;;5.45;2.65;;;10.20;99.90;;;;;;5027399;28;20037;-82
2022/10/13 01:07:33;;;;;;;6.63;3.33;;;10.20;99.90;;;;;;5009569;28;20386;-82
2022/10/13 01:10:01;;;;;;;4.55;2.70;;;10.20;99.90;;;;;;4993218;28;20378;-82
2022/10/13 01:12:48;;;;;;;4.15;2.50;;;10.20;99.90;;;;;;5027522;28;20046;-81
2022/10/13 01:15:40;;;;;;;3.90;2.38;;;10.20;99.90;;;;;;5027524;28;20031;-83
2022/10/13 01:18:24;;;;;;;5.60;3.05;;;10.30;99.90;;;;;;5027808;28;20029;-85
2022/10/13 01:20:58;;;;;;;4.60;2.50;;;10.30;99.90;;;;;;5010245;28;20033;-78
2022/10/13 01:23:39;;;;;;;6.07;3.28;;;10.30;99.90;;;;;;5025134;28;20075;-83
2022/10/13 01:26:16;;;;;;;4.88;2.25;;;10.40;99.90;;;;;;5024507;28;20073;-81
2022/10/13 01:29:21;;;;;;;4.53;2.97;;;10.40;99.90;;;;;;5026039;28;20030;-79
2022/10/13 01:31:59;;;;;;;4.07;2.92;;;10.40;99.90;;;;;;5027183;28;20040;-85
2022/10/13 01:34:38;;;;;;;4.00;2.45;;;10.40;99.90;;;;;;5008920;28;20029;-81
2022/10/13 01:37:17;;;;;;;4.47;2.60;;;10.40;99.90;;;;;;4993693;28;20039;-85
2022/10/13 01:40:00;;;;;;;4.75;2.45;;;10.40;99.90;;;;;;5011234;28;20034;-80
2022/10/13 01:42:42;;;;;;;4.40;3.35;;;10.50;99.90;;;;;;5025887;28;20038;-81
2022/10/13 01:45:19;;;;;;;5.47;2.70;;;10.40;99.90;;;;;;5010217;28;20116;-78
2022/10/13 01:47:47;;;;;;;4.57;2.85;;;10.50;99.90;;;;;;5010027;28;20026;-83
2022/10/13 01:50:15;;;;;;;5.32;2.83;;;10.50;99.90;;;;;;5040788;28;20069;-85
2022/10/13 01:52:42;;;;;;;6.18;3.30;;;10.50;99.90;;;;;;4993839;28;20030;-84
2022/10/13 01:55:10;;;;;;;5.07;2.75;;;10.50;99.90;;;;;;5046223;28;20481;-77
2022/10/13 01:57:41;;;;;;;5.00;2.90;;;10.50;99.90;;;;;;5030587;28;20029;-85
2022/10/13 02:00:12;;;;;;;6.15;2.97;;;10.60;99.90;;;;;;4996862;28;20052;-82
2022/10/13 02:02:38;;;;;;;6.25;2.78;;;10.60;99.90;;;;;;5030656;28;20051;-82
2022/10/13 02:05:13;;;;;;;4.88;2.78;;;10.50;99.90;;;;;;4997134;28;20489;-83
2022/10/13 02:07:39;;;;;;;6.35;2.85;;;10.60;99.90;;;;;;5028933;28;20033;-82
2022/10/13 02:10:10;;;;;;;5.97;3.15;;;10.50;99.90;;;;;;5011979;28;20381;-86
2022/10/13 02:12:45;;;;;;;6.18;2.67;;;10.60;99.90;;;;;;5028348;28;20064;-84
2022/10/13 02:15:15;;;;;;;7.82;3.28;;;10.50;99.90;;;;;;5000797;28;20484;-84
2022/10/13 02:17:41;;;;;;;6.32;2.92;;;10.50;99.90;;;;;;5030313;28;20029;-84
2022/10/13 02:20:08;;;;;;;5.90;2.75;;;10.50;99.90;;;;;;5012985;28;20390;-85
2022/10/13 02:22:41;;;;;;;3.92;2.25;;;10.50;99.90;;;;;;5026856;28;20033;-85
2022/10/13 02:25:07;;;;;;;4.78;2.60;;;10.60;99.90;;;;;;5027213;28;20042;-82
2022/10/13 02:27:33;;;;;;;4.30;2.85;;;10.50;99.90;;;;;;5029420;28;20044;-85
2022/10/13 02:29:59;;;;;;;4.97;2.75;;;10.50;99.90;;;;;;5013060;28;20033;-83
2022/10/13 02:32:29;;;;;;;7.18;4.28;;;10.50;99.90;;;;;;5013326;28;20291;-81
2022/10/13 02:34:55;;;;;;;7.20;4.28;;;10.50;99.90;;;;;;4995576;28;20030;-81
2022/10/13 02:37:21;;;;;;;5.70;3.70;;;10.50;99.90;;;;;;5029536;28;20104;-83
2022/10/13 02:39:46;;;;;;;4.90;3.28;;;10.50;99.90;;;;;;5012954;28;20025;-83
2022/10/13 02:42:12;;;;;;;6.95;3.47;;;10.50;99.90;;;;;;5044884;28;20025;-82
2022/10/13 02:44:39;;;;;;;5.38;3.53;;;10.60;99.90;;;;;;5012870;28;20159;-83
2022/10/13 02:47:04;;;;;;;4.47;3.05;;;10.60;99.90;;;;;;5012867;28;20512;-84
2022/10/13 02:49:30;;;;;;;4.07;2.42;;;10.60;99.90;;;;;;5045101;28;20037;-80
2022/10/13 02:51:56;;;;;;;4.40;2.45;;;10.60;99.90;;;;;;5012066;28;20029;-85
2022/10/13 02:54:21;;;;;;;5.70;2.72;;;10.60;99.90;;;;;;5012018;28;20041;-77
2022/10/13 02:56:47;;;;;;;7.18;2.90;;;10.60;99.90;;;;;;5011530;28;20089;-85
2022/10/13 02:59:12;;;;;;;5.93;2.88;;;10.60;99.90;;;;;;4994288;28;20034;-82
2022/10/13 03:01:40;;;;;;;7.90;3.70;;;10.60;99.90;;;;;;5029772;28;20025;-83
2022/10/13 03:04:10;;;;;;;4.80;3.10;;;10.70;99.90;;;;;;5011418;28;20025;-82
2022/10/13 03:06:36;;;;;;;4.70;2.85;;;10.70;99.90;;;;;;5029528;28;20063;-78
2022/10/13 03:09:03;;;;;;;4.75;3.35;;;10.70;99.90;;;;;;5011893;28;20466;-84
2022/10/13 03:11:29;;;;;;;7.97;3.53;;;10.80;99.90;;;;;;5027261;28;20061;-81
2022/10/13 03:13:55;;;;;;;5.32;3.13;;;10.80;99.90;;;;;;5029584;28;20371;-83
2022/10/13 03:16:21;;;;;;;6.47;4.07;;;10.80;99.90;;;;;;5028998;28;20027;-85
2022/10/13 03:18:46;;;;;;;5.68;3.30;;;10.90;99.90;;;;;;5011076;28;20390;-81
2022/10/13 03:21:12;;;;;;;6.68;3.28;;;10.80;99.90;;;;;;5009858;28;20032;-83
2022/10/13 03:23:38;;;;;;;6.50;3.33;;;10.80;99.90;;;;;;5029370;28;20021;-78
2022/10/13 03:26:04;;;;;;;5.75;3.72;;;10.90;99.90;;;;;;5012053;28;20061;-82
2022/10/13 03:28:29;;;;;;;6.13;3.45;;;10.90;99.90;;;;;;5044215;28;20484;-85
2022/10/13 03:31:03;;;;;;;6.88;4.07;;;10.80;99.90;;;;;;5028686;28;20033;-85
2022/10/13 03:33:28;;;;;;;8.55;4.13;;;10.80;99.90;;;;;;5028786;28;20021;-86
2022/10/13 03:36:04;;;;;;;7.53;4.13;;;10.90;99.90;;;;;;5026549;28;20551;-84
2022/10/13 03:38:32;;;;;;;7.28;4.38;;;10.90;99.90;;;;;;5010459;28;20079;-81
2022/10/13 03:41:03;;;;;;;8.60;4.75;;;10.90;99.90;;;;;;5043895;28;20436;-78
2022/10/13 03:43:29;;;;;;;8.05;5.40;;;10.80;99.90;;;;;;5025875;28;20531;-79
2022/10/13 03:46:00;;;;;;;7.28;4.97;;;10.90;99.90;;;;;;5011334;28;20045;-83
2022/10/13 03:48:27;;;;;;;5.35;4.00;;;10.90;99.90;;;;;;5009467;28;20112;-84
2022/10/13 03:50:53;;;;;;;6.47;4.07;;;10.90;99.90;;;;;;5029534;28;20464;-84
2022/10/13 03:53:19;;;;;;;6.65;3.38;;;10.90;99.90;;;;;;5010935;28;20105;-82
2022/10/13 03:55:49;;;;;;;4.75;3.03;;;10.90;99.90;;;;;;5027573;28;20124;-81
2022/10/13 03:58:15;;;;;;;5.03;2.83;;;10.90;99.90;;;;;;5011252;28;20033;-84
2022/10/13 04:00:41;;;;;;;3.97;2.70;;;10.90;99.90;;;;;;5044187;28;20489;-81
2022/10/13 04:03:07;;;;;;;4.68;2.78;;;10.90;99.90;;;;;;5026701;28;20117;-80
2022/10/13 04:05:36;;;;;;;5.03;2.97;;;10.90;99.90;;;;;;5028577;28;20036;-82
2022/10/13 04:08:02;;;;;;;6.50;3.85;;;11.00;99.90;;;;;;5011071;28;20029;-84
2022/10/13 04:10:27;;;;;;;5.38;3.08;;;11.10;99.90;;;;;;5010468;28;20060;-76
2022/10/13 04:12:53;;;;;;;5.93;3.58;;;11.10;99.90;;;;;;4990474;28;20049;-82
2022/10/13 04:15:19;;;;;;;6.72;3.67;;;11.10;99.90;;;;;;5009524;28;20025;-86
2022/10/13 04:17:44;;;;;;;8.13;4.00;;;11.20;99.90;;;;;;5010118;28;20076;-83
2022/10/13 04:20:10;;;;;;;8.60;3.85;;;11.10;99.90;;;;;;5027477;28;20126;-78
2022/10/13 04:22:36;;;;;;;5.97;3.22;;;11.10;99.90;;;;;;5010986;28;20057;-79
2022/10/13 04:25:02;;;;;;;5.93;3.67;;;11.20;99.90;;;;;;5025990;28;20132;-81
2022/10/13 04:27:28;;;;;;;5.60;3.50;;;11.20;99.90;;;;;;5009318;28;20053;-83
2022/10/13 04:29:54;;;;;;;5.32;2.90;;;11.10;99.90;;;;;;5010792;28;20469;-82
2022/10/13 04:32:19;;;;;;;7.80;3.47;;;11.20;99.90;;;;;;5009784;28;20048;-82
2022/10/13 04:34:45;;;;;;;5.47;3.40;;;11.20;99.90;;;;;;5026729;28;20030;-80
2022/10/13 04:37:11;;;;;;;5.43;3.00;;;11.20;99.90;;;;;;5025144;28;20021;-78
2022/10/13 04:39:36;;;;;;;5.25;3.20;;;11.20;99.90;;;;;;5009571;28;20030;-82
2022/10/13 04:42:02;;;;;;;5.72;3.38;;;11.20;99.90;;;;;;5010126;28;20029;-83
2022/10/13 04:44:29;;;;;;;4.82;2.92;;;11.20;99.90;;;;;;5008688;28;20037;-79
2022/10/13 04:46:56;;;;;;;5.90;3.95;;;11.20;99.90;;;;;;5010357;28;20367;-80
2022/10/13 04:49:23;;;;;;;4.65;2.90;;;11.30;99.90;;;;;;5009523;28;20043;-82
2022/10/13 04:51:48;;;;;;;8.07;3.97;;;11.30;99.90;;;;;;4992319;28;20026;-80
2022/10/13 04:54:14;;;;;;;7.13;3.60;;;11.20;99.90;;;;;;5009247;28;20076;-84
2022/10/13 04:56:40;;;;;;;7.35;3.55;;;11.20;99.90;;;;;;5008295;28;20067;-84
2022/10/13 04:59:05;;;;;;;5.88;2.90;;;11.30;99.90;;;;;;5010199;28;20120;-78
2022/10/13 05:01:32;;;;;;;5.43;2.95;;;11.30;99.90;;;;;;5009302;28;20068;-81
2022/10/13 05:04:01;;;;;;;5.82;3.40;;;11.20;99.90;;;;;;5009347;28;20033;-79
2022/10/13 05:06:30;;;;;;;4.95;3.42;;;11.30;99.90;;;;;;5042989;28;20108;-78
2022/10/13 05:08:56;;;;;;;5.82;2.78;;;11.30;99.90;;;;;;4993650;28;20155;-79
2022/10/13 05:11:23;;;;;;;4.55;3.15;;;11.30;99.90;;;;;;5009807;28;20687;-80
2022/10/13 05:13:48;;;;;;;7.22;4.13;;;11.30;99.90;;;;;;5042829;28;20413;-83
2022/10/13 05:16:16;;;;;;;4.97;3.22;;;11.20;99.90;;;;;;5008354;28;20021;-85
2022/10/13 05:18:42;;;;;;;5.68;3.70;;;11.20;99.90;;;;;;5036102;28;20040;-79
2022/10/13 05:21:12;;;;;;;6.10;3.50;;;11.20;99.90;;;;;;5021006;28;20040;-80
2022/10/13 05:23:38;;;;;;;;;;;11.20;99.90;;;;;;4990767;28;20224;-82
2022/10/13 05:26:09;;;;;;;5.18;3.50;;;11.20;99.90;;;;;;5025234;28;20649;-77
2022/10/13 05:28:35;;;;;;;6.63;3.60;;;11.20;99.90;;;;;;5027003;28;20460;-80
2022/10/13 05:31:11;;;;;;;4.45;3.33;;;11.20;99.90;;;;;;5008400;28;20033;-79
2022/10/13 05:33:37;;;;;;;5.15;3.33;;;11.20;99.90;;;;;;5024987;28;20597;-78
2022/10/13 05:36:11;;;;;;;5.22;3.25;;;11.20;99.90;;;;;;4992511;28;20033;-77
2022/10/13 05:38:37;;;;;;;5.10;2.40;;;11.20;99.90;;;;;;5005941;28;20029;-78
2022/10/13 05:41:04;;;;;;;6.03;3.35;;;11.10;99.90;;;;;;5012343;28;20037;-78
2022/10/13 05:43:31;;;;;;;6.72;4.72;;;11.20;99.90;;;;;;4996524;28;20030;-77
2022/10/13 05:45:59;;;;;;;6.70;4.70;;;11.20;99.90;;;;;;5027745;28;20076;-81
2022/10/13 05:48:25;;;;;;;10.95;6.03;;;11.20;99.90;;;;;;5030356;28;20083;-78
2022/10/13 05:50:51;;;;;;;7.97;4.22;;;11.20;99.90;;;;;;5030655;28;20033;-83
2022/10/13 05:53:18;;;;;;;6.45;4.25;;;11.20;99.90;;;;;;5029363;28;20048;-80
2022/10/13 05:55:44;;;;;;;6.63;4.60;;;11.20;99.90;;;;;;5013005;28;20029;-77
2022/10/13 05:58:12;;;;;;;6.38;4.13;;;11.10;99.90;;;;;;5011620;28;20489;-78
2022/10/13 06:00:40;;;;;;;6.35;4.25;;;11.20;99.90;;;;;;5012464;28;20044;-80
2022/10/13 06:03:13;;;;;;;8.05;4.05;;;11.20;99.90;;;;;;5028998;28;20036;-78
2022/10/13 06:05:44;;;;;;;5.80;4.00;;;11.20;99.90;;;;;;5027682;28;20041;-79
2022/10/13 06:08:09;;;;;;;5.45;3.65;;;11.20;99.90;;;;;;5012262;28;20021;-77
2022/10/13 06:10:36;;;;;;;5.22;3.25;;;11.20;99.90;;;;;;5013139;28;20026;-79
2022/10/13 06:13:02;;;;;;;8.38;3.78;;;11.20;99.90;;;;;;5029605;28;20041;-79
2022/10/13 06:15:28;;;;;;;4.43;3.05;;;11.30;99.90;;;;;;4996053;28;20037;-78
2022/10/13 06:17:55;;;;;;;7.85;3.88;;;11.20;99.90;;;;;;4996422;28;20489;-80
2022/10/13 06:20:20;;;;;;;8.13;3.97;;;11.30;99.90;;;;;;5045096;28;20071;-77
2022/10/13 06:22:48;;;;;;;6.90;3.65;;;11.30;99.90;;;;;;5013154;28;20049;-81
2022/10/13 06:25:14;;;;;;;6.65;3.67;;;11.30;99.90;;;;;;5028218;28;20045;-78
2022/10/13 06:27:40;;;;;;;6.40;4.28;;;11.30;99.90;;;;;;5029845;28;20030;-78
2022/10/13 06:30:07;;;;;;;6.82;3.83;;;11.40;99.90;;;;;;5010040;28;20111;-78
2022/10/13 06:32:34;;;;;;;6.00;4.22;;;11.40;99.90;;;;;;5029185;28;20101;-77
2022/10/13 06:35:00;;;;;;;8.88;4.53;;;11.40;99.90;;;;;;5029057;28;20109;-81
2022/10/13 06:37:25;;;;;;;7.18;5.07;;;11.40;99.90;;;;;;5027867;28;20348;-79
2022/10/13 06:39:51;;;;;;;7.40;5.00;;;11.50;99.90;;;;;;5029044;28;20131;-79
2022/10/13 06:42:17;;;;;;;8.27;4.80;;;11.50;99.90;;;;;;5029247;28;20021;-80
2022/10/13 06:44:43;;;;;;;8.95;5.32;;;11.60;99.90;;;;;;5011432;28;20037;-79
2022/10/13 06:47:08;;;;;;;7.05;4.80;;;11.70;99.90;;;;;;5028389;28;20052;-78
2022/10/13 06:49:34;;;;;;;7.53;4.78;;;11.80;99.90;;;;;;5027944;28;20029;-80
2022/10/13 06:51:59;;;;;;;7.68;4.68;;;11.80;99.90;;;;;;5010977;28;20076;-77
2022/10/13 06:54:25;;;;;;;9.85;4.78;;;11.90;99.90;;;;;;5029051;28;20426;-79
2022/10/13 06:56:51;;;;;;;7.25;4.63;;;11.90;99.90;;;;;;5010014;28;20428;-77
2022/10/13 06:59:17;;;;;;;8.90;5.25;;;11.90;99.90;;;;;;5011182;28;20029;-80
2022/10/13 07:01:44;;;;;;;6.63;4.28;;;12.00;99.90;;;;;;5010351;28;20446;-78
2022/10/13 07:04:11;;;;;;;11.55;5.03;;;12.00;99.90;;;;;;5026848;28;20658;-80
2022/10/13 07:06:37;;;;;;;5.68;4.18;;;12.00;99.90;;;;;;5010704;28;20056;-83
2022/10/13 07:09:04;;;;;;;5.93;3.75;;;12.00;99.90;;;;;;5010876;28;20087;-83
2022/10/13 07:11:30;;;;;;;6.63;3.50;;;12.10;99.90;;;;;;5010633;28;20069;-80
2022/10/13 07:13:58;;;;;;;8.15;4.40;;;12.10;99.90;;;;;;5028362;28;20033;-81
2022/10/13 07:16:23;;;;;;;8.20;4.70;;;12.10;99.90;;;;;;4994687;28;20099;-82
2022/10/13 07:18:49;;;;;;;7.88;4.55;;;12.10;99.90;;;;;;5027857;28;20030;-78
2022/10/13 07:21:15;;;;;;;7.93;4.88;;;12.10;99.90;;;;;;5043250;28;20033;-80
2022/10/13 07:23:41;;;;;;;7.97;4.68;;;12.10;99.90;;;;;;5028681;28;20029;-77
2022/10/13 07:26:13;;;;;;;7.72;4.50;;;12.10;99.90;;;;;;5027919;28;20394;-79
2022/10/13 07:28:40;;;;;;;7.28;4.20;;;12.10;99.90;;;;;;5011070;28;20021;-79
2022/10/13 07:31:12;;;;;;;5.70;3.78;;;12.20;99.90;;;;;;5043444;28;20132;-78
2022/10/13 07:33:39;;;;;;;7.45;4.22;;;12.20;99.90;;;;;;5010679;28;20025;-80
2022/10/13 07:36:05;;;;;;;6.75;4.22;;;12.20;99.90;;;;;;5028718;28;20080;-83
2022/10/13 07:38:31;;;;;;;7.85;4.13;;;12.20;99.90;;;;;;5028064;28;20029;-79
2022/10/13 07:41:01;;;;;;;7.75;3.95;;;12.20;99.90;;;;;;5028197;28;20560;-77
2022/10/13 07:43:27;;;;;;;5.32;3.72;;;12.30;99.90;;;;;;5027457;28;20541;-83
2022/10/13 07:45:54;;;;;;;8.23;3.70;;;12.30;99.90;;;;;;4994420;28;20037;-82
2022/10/13 07:48:20;;;;;;;4.50;2.70;;;12.30;99.90;;;;;;4993737;28;20028;-78
2022/10/13 07:50:45;;;;;;;5.40;3.28;;;12.30;99.90;;;;;;5009843;28;20033;-83
2022/10/13 07:53:11;;;;;;;6.57;3.42;;;12.30;99.90;;;;;;5026481;28;20373;-83
2022/10/13 07:55:37;;;;;;;9.05;4.45;;;12.30;99.90;;;;;;5026818;28;20481;-80
2022/10/13 07:58:03;;;;;;;7.25;4.60;;;12.40;99.90;;;;;;5027796;28;20515;-83
2022/10/13 08:00:32;;;;;;;6.47;4.60;;;12.40;99.90;;;;;;5027946;28;20108;-81
2022/10/13 08:02:57;;;;;;;9.20;4.78;;;12.40;99.90;;;;;;5010280;28;20121;-84
2022/10/13 08:05:23;;;;;;;6.47;4.28;;;12.40;99.90;;;;;;4993862;28;20592;-81
2022/10/13 08:07:48;;;;;;;8.00;4.93;;;12.50;99.90;;;;;;5027916;28;20057;-83
2022/10/13 08:10:14;;;;;;;7.78;4.22;;;12.50;99.90;;;;;;5027030;28;20025;-79
2022/10/13 08:12:40;;;;;;;6.90;4.43;;;12.50;99.90;;;;;;5009814;28;20093;-82
2022/10/13 08:15:08;;;;;;;6.72;4.03;;;12.60;99.90;;;;;;5026044;28;20175;-79
2022/10/13 08:17:34;;;;;;;5.65;3.47;;;12.60;99.90;;;;;;5025225;28;20393;-85
2022/10/13 08:20:00;;;;;;;5.93;3.80;;;12.60;99.90;;;;;;5010778;28;20029;-78
2022/10/13 08:22:26;;;;;;;10.77;5.55;;;12.60;99.90;;;;;;5027117;28;20031;-82
2022/10/13 08:24:52;;;;;;;8.55;5.75;;;12.60;99.90;;;;;;5009977;28;20037;-81
2022/10/13 08:27:22;;;;;;;9.70;5.78;;;12.70;99.90;;;;;;5010066;28;20122;-84
2022/10/13 08:29:48;;;;;;;8.52;5.57;;;12.70;99.90;;;;;;5009015;28;20405;-85
2022/10/13 08:32:14;;;;;;;8.38;4.43;;;12.70;99.90;;;;;;5010046;28;20158;-81
2022/10/13 08:34:40;;;;;;;5.18;3.53;;;12.80;99.90;;;;;;5009748;28;20276;-78
2022/10/13 08:37:05;;;;;;;7.57;4.60;;;12.80;99.90;;;;;;5042602;28;20035;-85
2022/10/13 08:39:31;;;;;;;5.90;3.85;;;12.90;99.90;;;;;;5009398;28;20060;-85
2022/10/13 08:41:57;;;;;;;7.63;5.10;;;12.90;99.90;;;;;;5009379;28;20445;-78
2022/10/13 08:44:45;;;;;;;8.70;5.13;;;13.00;99.90;;;;;;5009561;28;20037;-78
2022/10/13 08:47:25;;;;;;;8.70;5.60;;;13.00;99.90;;;;;;5009326;28;20502;-82
2022/10/13 08:49:54;;;;;;;10.73;7.15;;;13.10;99.90;;;;;;5024684;28;20112;-80
2022/10/13 08:52:22;;;;;;;12.13;6.22;;;13.10;99.90;;;;;;5023715;28;20053;-86
2022/10/13 08:54:48;;;;;;;11.48;5.70;;;13.20;99.90;;;;;;5010303;28;20056;-84
2022/10/13 08:57:14;;;;;;;7.07;4.60;;;13.20;99.90;;;;;;5009143;28;20406;-81
2022/10/13 08:59:40;;;;;;;8.88;4.75;;;13.30;99.90;;;;;;5010041;28;20022;-82
2022/10/13 09:02:13;;;;;;;8.88;4.95;;;13.30;99.90;;;;;;5029396;28;20040;-83
2022/10/13 09:04:42;;;;;;;10.15;5.97;;;13.30;99.90;;;;;;5031429;28;20521;-83
2022/10/13 09:07:08;;;;;;;8.73;5.85;;;13.40;99.90;;;;;;4996864;28;20501;-84
2022/10/13 09:09:34;;;;;;;6.15;4.90;;;13.40;99.90;;;;;;5028501;28;20080;-82
2022/10/13 09:12:00;;;;;;;10.02;5.80;;;13.50;99.90;;;;;;4996192;28;20049;-85
2022/10/13 09:14:32;;;;;;;9.85;5.57;;;13.60;99.90;;;;;;5013881;28;20045;-84
2022/10/13 09:17:20;;;;;;;10.65;5.90;;;13.70;99.90;;;;;;5030823;28;20478;-82
2022/10/13 09:20:00;;;;;;;6.15;3.55;;;13.80;99.90;;;;;;5047017;28;20405;-80
2022/10/13 09:22:29;;;;;;;8.05;4.15;;;13.90;99.90;;;;;;4994007;28;20176;-80
2022/10/13 09:25:07;;;;;;;9.40;5.03;;;14.10;99.90;;;;;;5013370;28;20075;-80
2022/10/13 09:28:00;;;;;;;7.03;3.67;;;14.20;99.90;;;;;;4993406;28;20022;-81
2022/10/13 09:30:34;;;;;;;6.03;3.40;;;14.20;99.90;;;;;;4991155;28;20153;-82
2022/10/13 09:33:08;;;;;;;12.60;6.55;;;14.60;99.90;;;;;;5011551;28;20124;-79
2022/10/13 09:35:36;;;;;;;11.85;6.65;;;14.60;99.90;;;;;;5031210;28;20033;-79
2022/10/13 09:38:19;;;;;;;9.02;5.28;;;14.70;99.90;;;;;;4997696;28;20057;-78
2022/10/13 09:41:12;;;;;;;6.80;4.00;;;14.90;99.90;;;;;;5013323;28;20427;-80
2022/10/13 09:43:47;;;;;;;7.40;4.13;;;15.10;99.90;;;;;;5011883;28;20426;-83
2022/10/13 09:46:30;;;;;;;6.65;4.57;;;15.10;99.90;;;;;;5012319;28;20033;-77
2022/10/13 09:49:03;;;;;;;6.97;4.70;;;15.30;99.90;;;;;;5044375;28;20037;-82
2022/10/13 09:51:41;;;;;;;8.20;5.18;;;15.40;99.90;;;;;;5028069;28;20040;-80
2022/10/13 09:54:34;;;;;;;12.00;6.68;;;15.50;99.90;;;;;;5028711;28;20018;-84
2022/10/13 09:57:13;;;;;;;7.93;4.15;;;15.30;99.90;;;;;;5028476;28;20048;-83
2022/10/13 10:00:10;;;;;;;7.63;5.22;;;15.40;99.90;;;;;;5012536;28;20022;-80
2022/10/13 10:03:06;;;;;;;8.07;5.70;;;15.30;99.90;;;;;;5025926;28;20037;-81
2022/10/13 10:05:45;;;;;;;6.70;3.78;;;15.20;99.90;;;;;;5020271;28;20037;-79
2022/10/13 10:08:22;;;;;;;10.13;4.18;;;15.40;99.90;;;;;;5028392;28;20033;-85
2022/10/13 10:10:48;;;;;;;6.15;3.75;;;15.40;99.90;;;;;;5012357;28;20030;-84
2022/10/13 10:13:14;;;;;;;6.70;4.38;;;15.60;99.90;;;;;;5007505;28;20060;-81
2022/10/13 10:15:52;;;;;;;5.55;3.92;;;15.70;99.90;;;;;;5009435;28;20068;-83
2022/10/13 10:18:39;;;;;;;7.05;3.70;;;15.70;99.90;;;;;;4992417;28;20040;-84
2022/10/13 10:21:10;;;;;;;6.53;4.20;;;15.70;99.90;;;;;;5008706;28;20025;-81
2022/10/13 10:23:58;;;;;;;8.43;4.82;;;15.60;99.90;;;;;;5009210;28;20030;-80
2022/10/13 10:26:42;;;;;;;6.28;3.50;;;15.50;99.90;;;;;;5009975;28;20049;-84
2022/10/13 10:29:13;;;;;;;8.38;3.58;;;15.60;99.90;;;;;;5007587;28;20502;-83
2022/10/13 10:31:53;;;;;;;6.22;3.60;;;15.50;99.90;;;;;;5009861;28;20076;-84
2022/10/13 10:34:36;;;;;;;5.20;3.47;;;15.40;99.90;;;;;;5023444;28;20018;-81
2022/10/13 10:37:26;;;;;;;6.32;3.17;;;15.20;99.90;;;;;;5007617;28;20129;-83
2022/10/13 10:40:11;;;;;;;5.07;3.67;;;15.20;99.90;;;;;;4988081;28;20092;-83
2022/10/13 10:42:52;;;;;;;5.50;3.30;;;15.10;99.90;;;;;;4988115;28;20053;-78
2022/10/13 10:45:23;;;;;;;8.07;3.47;;;15.10;99.90;;;;;;5008349;28;20100;-84
2022/10/13 10:47:54;;;;;;;7.82;4.43;;;15.00;99.90;;;;;;4987445;28;20029;-79
2022/10/13 10:50:22;;;;;;;8.43;4.82;;;14.90;99.90;;;;;;5007181;28;20391;-85
2022/10/13 10:53:31;;;;;;;7.25;4.60;;;14.90;99.90;;;;;;4992420;28;20018;-78
2022/10/13 10:56:23;;;;;;;9.00;4.90;;;14.80;99.90;;;;;;5003878;28;20037;-81
2022/10/13 10:59:18;;;;;;;5.97;3.15;;;14.70;99.90;;;;;;5008331;28;20026;-83
2022/10/13 11:02:06;;;;;;;8.27;5.40;;;14.70;99.90;;;;;;4989688;28;20038;-85
2022/10/13 11:04:44;;;;;;;5.70;4.18;;;14.60;99.90;;;;;;5006951;28;20061;-81
2022/10/13 11:07:22;;;;;;;9.65;5.03;;;14.70;99.90;;;;;;5007832;28;20034;-78
2022/10/13 11:09:47;;;;;;;7.90;5.68;;;14.80;99.90;;;;;;5008417;28;20030;-81
2022/10/13 11:12:19;;;;;;;9.88;5.15;;;14.70;99.90;;;;;;5019149;28;20401;-83
2022/10/13 11:15:04;;;;;;;8.32;5.60;;;14.80;99.90;;;;;;5027989;28;20466;-84
2022/10/13 11:17:37;;;;;;;7.50;5.32;;;14.70;99.90;;;;;;5027709;28;20028;-84
2022/10/13 11:20:19;;;;;;;7.13;5.00;;;14.70;99.90;;;;;;5026334;28;20030;-79
2022/10/13 11:23:04;;;;;;;7.38;4.95;;;14.50;99.90;;;;;;5009512;28;20121;-81
2022/10/13 11:25:43;;;;;;;9.27;6.93;;;14.30;99.90;;;;;;5027221;28;20041;-80
2022/10/13 11:28:21;;;;;;;8.05;5.43;;;14.20;99.90;;;;;;5027434;28;20029;-81
2022/10/13 11:30:48;;;;;;;8.90;5.70;;;14.10;99.90;;;;;;5041123;28;20031;-81
2022/10/13 11:33:37;;;;;;;8.45;5.20;;;14.20;99.90;;;;;;5007778;28;20025;-79
2022/10/13 11:36:34;;;;;;;6.57;4.45;;;14.20;99.90;;;;;;5008529;28;20035;-79
2022/10/13 11:39:21;;;;;;;9.73;5.43;;;14.20;99.90;;;;;;5008808;28;20095;-81
2022/10/13 11:42:11;;;;;;;8.52;5.30;;;14.10;99.90;;;;;;4997055;28;20026;-81
2022/10/13 11:44:58;;;;;;;7.72;5.45;;;14.10;99.90;;;;;;4996401;28;20041;-82
2022/10/13 11:47:35;;;;;;;7.85;6.25;;;14.10;99.90;;;;;;4991151;28;20068;-81
2022/10/13 11:50:25;;;;;;;8.55;6.57;;;14.00;99.90;;;;;;5027876;28;20025;-83
2022/10/13 11:52:54;;;;;;;;;;;14.00;99.90;;;;;;5028307;28;20030;-81
2022/10/13 11:55:32;;;;;;;8.45;5.43;;;14.00;99.90;;;;;;5040230;28;20321;-81
2022/10/13 11:58:21;;;;;;;7.97;5.03;;;14.00;99.90;;;;;;5027481;28;20025;-81
2022/10/13 12:01:10;;;;;;;8.82;6.07;;;13.80;99.90;;;;;;5026466;28;20021;-82
2022/10/13 12:03:38;;;;;;;;;;;13.90;99.90;;;;;;5010330;28;20048;-81
2022/10/13 12:06:32;;;;;;;5.90;4.13;;;13.90;99.90;;;;;;5010045;28;19982;-81
2022/10/13 12:09:04;;;;;;;5.45;4.03;;;13.90;99.90;;;;;;5009725;28;20021;-82
2022/10/13 12:11:34;;;;;;;6.57;3.45;;;13.90;99.90;;;;;;5028026;28;20370;-83
2022/10/13 12:14:00;;;;;;;6.43;3.70;;;13.90;99.90;;;;;;4993229;28;20026;-82
2022/10/13 12:16:28;;;;;;;7.50;4.30;;;13.90;99.90;;;;;;5009108;28;20036;-82
2022/10/13 12:19:17;;;;;;;7.47;3.28;;;13.80;99.90;;;;;;5026194;28;20055;-83
2022/10/13 12:21:51;;;;;;;7.00;3.43;;;13.80;99.90;;;;;;5024637;28;20029;-81
2022/10/13 12:24:16;;;;;;;5.07;3.25;;;13.80;99.90;;;;;;5008517;28;20034;-83
2022/10/13 12:26:42;;;;;;;6.28;3.83;;;13.80;99.90;;;;;;5009825;28;20562;-81
2022/10/13 12:29:13;;;;;;;8.50;3.58;;;13.70;99.90;;;;;;5037452;28;20366;-81
2022/10/13 12:31:45;;;;;;;5.45;3.80;;;13.80;99.90;;;;;;5023733;28;20033;-81
2022/10/13 12:34:35;;;;;;;5.65;4.10;;;13.80;99.90;;;;;;4993088;28;20473;-83
2022/10/13 12:37:05;;;;;;;5.70;3.63;;;13.80;99.90;;;;;;5026913;28;20412;-82
2022/10/13 12:39:33;;;;;;;6.50;4.13;;;13.80;99.90;;;;;;5009043;28;20033;-83
2022/10/13 12:42:01;;;;;;;6.50;4.50;;;13.80;99.90;;;;;;5023375;28;20128;-81
2022/10/13 12:44:29;;;;;;;6.40;4.18;;;13.80;99.90;;;;;;5026699;28;20040;-82
2022/10/13 12:46:59;;;;;;;6.00;4.13;;;13.80;99.90;;;;;;5026010;28;20477;-81
2022/10/13 12:49:27;;;;;;;7.03;4.57;;;13.80;99.90;;;;;;5009133;28;20056;-83
2022/10/13 12:52:04;;;;;;;7.43;3.42;;;13.80;99.90;;;;;;4992727;28;20037;-81
2022/10/13 12:54:33;;;;;;;7.05;4.05;;;13.80;99.90;;;;;;5027176;28;20021;-81
2022/10/13 12:57:13;;;;;;;6.53;3.95;;;13.80;99.90;;;;;;5024835;28;20034;-82
2022/10/13 12:59:41;;;;;;;5.70;3.75;;;13.80;99.90;;;;;;5040016;28;20080;-82
2022/10/13 13:02:33;;;;;;;5.60;4.15;;;13.80;99.90;;;;;;5009620;28;20033;-81
2022/10/13 13:04:59;;;;;;;5.20;4.25;;;13.90;99.90;;;;;;4989252;28;20100;-83
2022/10/13 13:07:29;;;;;;;8.20;3.95;;;13.90;99.90;;;;;;5026935;28;20018;-82